createdAt,value
2023-04-02T00:01:22.646Z,100704.06
2023-04-02T00:04:23.841Z,100702.44
2023-04-02T00:07:30.998Z,100713.75
2023-04-02T00:10:45.446Z,100721.38
2023-04-02T00:13:39.558Z,100731.69
2023-04-02T00:16:24.927Z,100730.88
2023-04-02T00:19:19.533Z,100741.91
2023-04-02T00:22:09.620Z,100737.47
2023-04-02T00:24:56.088Z,100749.56
2023-04-02T00:27:42.602Z,100749.47
2023-04-02T00:30:28.027Z,100762.69
2023-04-02T00:33:18.545Z,100765.03
2023-04-02T00:36:07.797Z,100771.91
2023-04-02T00:38:55.617Z,100772.75
2023-04-02T00:41:46.576Z,100779.03
2023-04-02T00:44:43.156Z,100788.91
2023-04-02T00:47:36.921Z,100794.94
2023-04-02T00:50:29.007Z,100787.91
2023-04-02T00:53:26.153Z,100808.34
2023-04-02T00:56:17.236Z,100796.56
2023-04-02T00:59:02.654Z,100805.34
2023-04-02T01:01:54.161Z,100803.78
2023-04-02T01:04:39.833Z,100812.13
2023-04-02T01:07:45.223Z,100817.19
2023-04-02T01:10:43.016Z,100819.00
2023-04-02T01:13:35.211Z,100821.44
2023-04-02T01:16:27.204Z,100824.22
2023-04-02T01:19:45.239Z,100827.53
2023-04-02T01:22:53.388Z,100837.56
2023-04-02T01:25:39.009Z,100837.69
2023-04-02T01:28:35.628Z,100843.88
2023-04-02T01:31:22.080Z,100850.75
2023-04-02T01:34:09.785Z,100855.81
2023-04-02T01:37:00.907Z,100860.94
2023-04-02T01:40:06.408Z,100862.47
2023-04-02T01:43:13.544Z,100866.66
2023-04-02T01:46:00.540Z,100870.91
2023-04-02T01:48:45.793Z,100874.56
2023-04-02T01:51:35.642Z,100883.03
2023-04-02T01:54:22.219Z,100894.13
2023-04-02T01:57:08.589Z,100883.75
2023-04-02T01:59:55.160Z,100895.81
2023-04-02T02:02:41.163Z,100900.88
2023-04-02T02:05:27.037Z,100897.44
2023-04-02T02:08:31.895Z,100909.53
2023-04-02T02:11:21.562Z,100910.28
2023-04-02T02:14:15.875Z,100910.53
2023-04-02T02:17:04.743Z,100914.09
2023-04-02T02:19:55.212Z,100928.47
2023-04-02T02:22:45.909Z,100927.56
2023-04-02T02:25:34.274Z,100934.47
2023-04-02T02:28:35.290Z,100943.94
2023-04-02T02:31:27.939Z,100940.78
2023-04-02T02:37:27.889Z,100958.22
2023-04-02T02:40:19.239Z,100964.25
2023-04-02T02:43:10.499Z,100964.75
2023-04-02T02:45:58.252Z,100969.09
2023-04-02T02:48:44.495Z,100973.31
2023-04-02T02:51:45.345Z,100972.38
2023-04-02T02:54:32.187Z,100980.06
2023-04-02T02:57:27.600Z,100982.81
2023-04-02T03:00:16.803Z,100990.59
2023-04-02T03:03:05.252Z,101000.81
2023-04-02T03:05:53.741Z,100999.81
2023-04-02T03:08:41.843Z,101000.72
2023-04-02T03:11:43.798Z,101002.44
2023-04-02T03:14:36.131Z,101011.97
2023-04-02T03:17:31.611Z,101017.53
2023-04-02T03:20:32.392Z,101019.72
2023-04-02T03:23:26.069Z,101029.28
2023-04-02T03:26:18.794Z,101035.31
2023-04-02T03:29:38.707Z,101036.00
2023-04-02T03:32:29.601Z,101047.09
2023-04-02T03:35:41.075Z,101060.56
2023-04-02T03:38:41.477Z,101062.44
2023-04-02T03:41:37.918Z,101070.72
2023-04-02T03:44:32.482Z,101078.69
2023-04-02T03:47:47.475Z,101084.53
2023-04-02T03:50:47.376Z,101092.00
2023-04-02T03:53:32.744Z,101089.81
2023-04-02T03:56:31.452Z,101105.13
2023-04-02T03:59:28.661Z,101109.13
2023-04-02T04:02:45.371Z,101121.19
2023-04-02T04:05:35.123Z,101125.53
2023-04-02T04:08:34.079Z,101128.78
2023-04-02T04:11:27.445Z,101135.97
2023-04-02T04:14:18.224Z,101138.63
2023-04-02T04:17:13.759Z,101144.38
2023-04-02T04:20:10.816Z,101151.38
2023-04-02T04:22:56.028Z,101145.97
2023-04-02T04:25:41.412Z,101151.81
2023-04-02T04:29:14.197Z,101164.16
2023-04-02T04:32:18.361Z,101166.91
2023-04-02T04:35:23.083Z,101165.84
2023-04-02T04:38:16.301Z,101181.28
2023-04-02T04:41:12.796Z,101177.97
2023-04-02T04:44:14.840Z,101183.34
2023-04-02T04:47:16.349Z,101195.03
2023-04-02T04:50:11.459Z,101189.69
2023-04-02T04:52:58.084Z,101211.25
2023-04-02T04:55:44.904Z,101210.38
2023-04-02T04:59:02.138Z,101213.88
2023-04-02T05:01:57.538Z,101224.03
2023-04-02T05:04:48.567Z,101223.25
2023-04-02T05:07:45.486Z,101230.34
2023-04-02T05:10:43.658Z,101235.28
2023-04-02T05:13:40.272Z,101240.41
2023-04-02T05:16:40.702Z,101246.59
2023-04-02T05:19:35.892Z,101248.25
2023-04-02T05:22:48.790Z,101251.84
2023-04-02T05:25:35.155Z,101264.78
2023-04-02T05:28:29.699Z,101262.75
2023-04-02T05:31:26.898Z,101271.59
2023-04-02T05:34:14.572Z,101273.84
2023-04-02T05:36:59.766Z,101282.63
2023-04-02T05:39:46.594Z,101282.41
2023-04-02T05:42:37.528Z,101295.06
2023-04-02T05:45:34.625Z,101291.72
2023-04-02T05:48:26.236Z,101299.44
2023-04-02T05:51:23.902Z,101302.69
2023-04-02T05:54:37.036Z,101306.16
2023-04-02T05:57:44.427Z,101316.78
2023-04-02T06:00:38.604Z,101313.22
2023-04-02T06:03:52.166Z,101322.72
2023-04-02T06:06:41.702Z,101326.72
2023-04-02T06:09:27.540Z,101335.88
2023-04-02T06:12:28.189Z,101345.53
2023-04-02T06:15:21.264Z,101354.19
2023-04-02T06:18:13.556Z,101347.91
2023-04-02T06:20:59.287Z,101356.63
2023-04-02T06:23:55.559Z,101365.25
2023-04-02T06:26:44.835Z,101369.47
2023-04-02T06:29:39.681Z,101378.16
2023-04-02T06:32:26.833Z,101383.25
2023-04-02T06:35:15.927Z,101388.59
2023-04-02T06:38:03.954Z,101394.84
2023-04-02T06:40:54.954Z,101392.78
2023-04-02T06:43:46.136Z,101397.94
2023-04-02T06:46:38.097Z,101404.88
2023-04-02T06:49:40.241Z,101413.16
2023-04-02T06:52:32.352Z,101427.22
2023-04-02T06:55:48.013Z,101431.56
2023-04-02T06:58:33.231Z,101430.72
2023-04-02T07:01:24.906Z,101438.38
2023-04-02T07:04:10.586Z,101444.31
2023-04-02T07:06:55.895Z,101444.44
2023-04-02T07:09:40.588Z,101451.59
2023-04-02T07:12:26.493Z,101460.72
2023-04-02T07:15:19.328Z,101461.47
2023-04-02T07:18:04.762Z,101471.84
2023-04-02T07:20:52.065Z,101472.81
2023-04-02T07:23:40.003Z,101477.22
2023-04-02T07:26:28.210Z,101479.75
2023-04-02T07:29:16.180Z,101488.22
2023-04-02T07:32:01.346Z,101480.59
2023-04-02T07:34:48.795Z,101499.34
2023-04-02T07:37:34.132Z,101502.00
2023-04-02T07:40:21.868Z,101504.53
2023-04-02T07:43:07.647Z,101508.16
2023-04-02T07:45:52.741Z,101508.97
2023-04-02T07:48:38.035Z,101514.09
2023-04-02T07:51:25.774Z,101519.47
2023-04-02T07:54:11.128Z,101535.94
2023-04-02T07:56:56.340Z,101532.56
2023-04-02T07:59:41.237Z,101548.88
2023-04-02T08:02:26.339Z,101552.34
2023-04-02T08:05:11.924Z,101555.09
2023-04-02T08:07:57.612Z,101557.47
2023-04-02T08:10:42.405Z,101565.09
2023-04-02T08:13:27.331Z,101567.66
2023-04-02T08:16:12.287Z,101569.56
2023-04-02T08:18:57.336Z,101573.22
2023-04-02T08:21:42.094Z,101585.84
2023-04-02T08:24:27.012Z,101585.31
2023-04-02T08:27:14.886Z,101593.13
2023-04-02T08:30:00.235Z,101588.72
2023-04-02T08:32:46.136Z,101590.72
2023-04-02T08:35:31.250Z,101602.66
2023-04-02T08:38:22.236Z,101606.00
2023-04-02T08:41:10.545Z,101606.91
2023-04-02T08:44:08.562Z,101622.72
2023-04-02T08:47:03.264Z,101626.72
2023-04-02T08:49:59.727Z,101634.16
2023-04-02T08:52:45.342Z,101631.63
2023-04-02T08:55:38.419Z,101642.81
2023-04-02T08:58:42.295Z,101644.56
2023-04-02T09:01:35.147Z,101639.72
2023-04-02T09:04:23.388Z,101640.53
2023-04-02T09:07:14.842Z,101640.66
2023-04-02T09:10:01.157Z,101646.75
2023-04-02T09:12:54.128Z,101658.78
2023-04-02T09:15:39.241Z,101651.13
2023-04-02T09:18:26.319Z,101660.06
2023-04-02T09:21:21.000Z,101671.22
2023-04-02T09:24:06.484Z,101672.09
2023-04-02T09:26:51.659Z,101676.47
2023-04-02T09:29:43.623Z,101679.97
2023-04-02T09:32:47.443Z,101683.38
2023-04-02T09:35:34.857Z,101684.50
2023-04-02T09:38:31.017Z,101692.13
2023-04-02T09:41:21.120Z,101689.13
2023-04-02T09:44:26.724Z,101695.91
2023-04-02T09:47:26.156Z,101702.09
2023-04-02T09:50:34.542Z,101706.53
2023-04-02T09:53:36.634Z,101712.72
2023-04-02T09:56:24.171Z,101712.69
2023-04-02T09:59:18.775Z,101715.34
2023-04-02T10:02:05.455Z,101717.03
2023-04-02T10:04:51.798Z,101726.91
2023-04-02T10:07:44.868Z,101736.63
2023-04-02T10:10:39.461Z,101726.31
2023-04-02T10:13:56.961Z,101737.78
2023-04-02T10:16:50.523Z,101736.81
2023-04-02T10:19:42.831Z,101746.28
2023-04-02T10:22:28.123Z,101752.38
2023-04-02T10:25:21.833Z,101754.06
2023-04-02T10:28:12.932Z,101759.38
2023-04-02T10:31:18.409Z,101750.94
2023-04-02T10:34:12.441Z,101762.31
2023-04-02T10:37:08.765Z,101758.00
2023-04-02T10:40:01.618Z,101761.19
2023-04-02T10:43:23.704Z,101770.00
2023-04-02T10:46:24.468Z,101768.94
2023-04-02T10:49:33.694Z,101767.94
2023-04-02T10:52:24.238Z,101770.59
2023-04-02T10:55:23.697Z,101779.31
2023-04-02T10:58:20.424Z,101778.56
2023-04-02T11:01:14.571Z,101788.13
2023-04-02T11:04:02.473Z,101786.34
2023-04-02T11:07:00.833Z,101781.91
2023-04-02T11:09:58.580Z,101786.44
2023-04-02T11:12:50.856Z,101782.84
2023-04-02T11:15:37.295Z,101780.56
2023-04-02T11:18:35.934Z,101782.56
2023-04-02T11:21:30.162Z,101784.47
2023-04-02T11:24:31.441Z,101779.38
2023-04-02T11:27:26.029Z,101793.34
2023-04-02T11:30:17.996Z,101789.91
2023-04-02T11:33:44.711Z,101791.66
2023-04-02T11:36:55.312Z,101782.91
2023-04-02T11:39:57.034Z,101794.22
2023-04-02T11:42:47.716Z,101795.91
2023-04-02T11:45:53.746Z,101802.81
2023-04-02T11:48:40.805Z,101802.75
2023-04-02T11:51:32.087Z,101803.41
2023-04-02T11:54:28.910Z,101809.63
2023-04-02T11:57:37.229Z,101816.41
2023-04-02T12:00:32.076Z,101812.88
2023-04-02T12:04:02.517Z,101821.56
2023-04-02T12:07:00.076Z,101811.00
2023-04-02T12:09:52.349Z,101824.09
2023-04-02T12:12:41.793Z,101824.09
2023-04-02T12:15:33.026Z,101828.59
2023-04-02T12:18:24.137Z,101826.19
2023-04-02T12:24:25.304Z,101840.22
2023-04-02T12:27:24.177Z,101847.13
2023-04-02T12:30:17.412Z,101846.19
2023-04-02T12:33:14.825Z,101853.22
2023-04-02T12:36:02.500Z,101855.00
2023-04-02T12:38:53.509Z,101863.69
2023-04-02T12:41:40.783Z,101868.91
2023-04-02T12:44:28.703Z,101852.41
2023-04-02T12:47:13.609Z,101861.91
2023-04-02T12:50:01.701Z,101861.97
2023-04-02T12:52:53.595Z,101869.78
2023-04-02T12:55:38.564Z,101874.97
2023-04-02T12:58:41.220Z,101865.44
2023-04-02T13:01:32.114Z,101867.13
2023-04-02T13:04:18.139Z,101858.16
2023-04-02T13:07:03.260Z,101865.34
2023-04-02T13:09:51.911Z,101869.59
2023-04-02T13:12:39.280Z,101870.44
2023-04-02T13:15:28.625Z,101869.53
2023-04-02T13:18:13.982Z,101872.81
2023-04-02T13:21:01.060Z,101868.69
2023-04-02T13:23:46.909Z,101870.38
2023-04-02T13:26:31.991Z,101871.06
2023-04-02T13:29:31.014Z,101864.00
2023-04-02T13:32:16.390Z,101871.13
2023-04-02T13:35:01.571Z,101879.03
2023-04-02T13:37:46.771Z,101885.34
2023-04-02T13:40:34.228Z,101882.81
2023-04-02T13:43:20.925Z,101871.50
2023-04-02T13:46:07.062Z,101885.41
2023-04-02T13:48:54.542Z,101888.91
2023-04-02T13:51:41.889Z,101890.56
2023-04-02T13:54:49.060Z,101894.09
2023-04-02T13:57:34.464Z,101897.59
2023-04-02T14:00:20.423Z,101884.53
2023-04-02T14:03:10.492Z,101893.19
2023-04-02T14:05:55.377Z,101887.97
2023-04-02T14:09:17.780Z,101900.19
2023-04-02T14:12:06.350Z,101893.22
2023-04-02T14:15:08.567Z,101893.19
2023-04-02T14:18:08.004Z,101898.16
2023-04-02T14:21:31.719Z,101899.75
2023-04-02T14:24:32.694Z,101913.19
2023-04-02T14:28:04.664Z,101913.22
2023-04-02T14:31:14.133Z,101927.91
2023-04-02T14:34:25.927Z,101928.59
2023-04-02T14:37:31.593Z,101922.44
2023-04-02T14:40:28.066Z,101924.41
2023-04-02T14:43:46.513Z,101919.25
2023-04-02T14:46:37.482Z,101919.97
2023-04-02T14:49:35.148Z,101922.78
2023-04-02T14:52:23.900Z,101937.50
2023-04-02T14:55:19.279Z,101941.66
2023-04-02T14:58:18.822Z,101941.66
2023-04-02T15:01:17.410Z,101945.38
2023-04-02T15:04:17.062Z,101932.09
2023-04-02T15:07:07.759Z,101934.09
2023-04-02T15:10:08.206Z,101940.03
2023-04-02T15:12:56.369Z,101948.00
2023-04-02T15:15:43.862Z,101950.53
2023-04-02T15:18:30.149Z,101956.34
2023-04-02T15:21:49.678Z,101954.50
2023-04-02T15:25:12.739Z,101950.03
2023-04-02T15:28:14.031Z,101962.25
2023-04-02T15:31:07.185Z,101963.59
2023-04-02T15:34:20.721Z,101972.25
2023-04-02T15:37:20.816Z,101965.06
2023-04-02T15:40:41.541Z,101967.59
2023-04-02T15:43:49.241Z,101978.19
2023-04-02T15:47:02.968Z,101975.84
2023-04-02T15:50:09.551Z,101977.50
2023-04-02T15:53:25.165Z,101987.47
2023-04-02T15:56:30.753Z,102000.00
2023-04-02T15:59:24.570Z,102007.72
2023-04-02T16:02:27.757Z,102001.69
2023-04-02T16:05:36.369Z,101999.81
2023-04-02T16:08:33.700Z,102008.78
2023-04-02T16:11:18.785Z,102008.84
2023-04-02T16:14:21.431Z,102012.13
2023-04-02T16:17:24.286Z,102011.06
2023-04-02T16:20:20.024Z,102017.78
2023-04-02T16:23:12.897Z,102034.03
2023-04-02T16:26:28.700Z,102032.84
2023-04-02T16:29:51.169Z,102030.88
2023-04-02T16:33:14.411Z,102040.31
2023-04-02T16:36:27.958Z,102048.09
2023-04-02T16:39:36.233Z,102048.00
2023-04-02T16:42:43.541Z,102063.72
2023-04-02T16:45:44.036Z,102066.91
2023-04-02T16:49:03.273Z,102074.56
2023-04-02T16:52:23.422Z,102077.97
2023-04-02T16:55:33.255Z,102088.09
2023-04-02T16:58:50.098Z,102092.28
2023-04-02T17:02:21.437Z,102093.03
2023-04-02T17:05:31.703Z,102102.13
2023-04-02T17:08:24.046Z,102107.31
2023-04-02T17:11:16.616Z,102114.94
2023-04-02T17:14:06.403Z,102119.13
2023-04-02T17:17:02.341Z,102120.97
2023-04-02T17:19:50.648Z,102123.59
2023-04-02T17:22:37.162Z,102126.19
2023-04-02T17:25:32.070Z,102131.38
2023-04-02T17:28:25.725Z,102134.63
2023-04-02T17:31:20.033Z,102139.69
2023-04-02T17:34:22.568Z,102146.63
2023-04-02T17:37:42.419Z,102151.69
2023-04-02T17:40:36.399Z,102148.00
2023-04-02T17:43:46.363Z,102148.59
2023-04-02T17:46:39.175Z,102157.97
2023-04-02T17:49:31.491Z,102164.44
2023-04-02T17:52:43.908Z,102167.75
2023-04-02T17:55:47.067Z,102173.91
2023-04-02T17:59:04.218Z,102175.88
2023-04-02T18:02:19.111Z,102179.91
2023-04-02T18:05:42.324Z,102195.81
2023-04-02T18:08:46.635Z,102196.03
2023-04-02T18:12:15.890Z,102198.53
2023-04-02T18:15:28.603Z,102208.50
2023-04-02T18:18:33.770Z,102215.38
2023-04-02T18:21:29.078Z,102222.41
2023-04-02T18:24:49.392Z,102225.50
2023-04-02T18:27:51.040Z,102234.47
2023-04-02T18:31:13.463Z,102236.38
2023-04-02T18:34:11.093Z,102247.72
2023-04-02T18:37:31.482Z,102250.41
2023-04-02T18:40:43.302Z,102260.66
2023-04-02T18:43:55.327Z,102261.06
2023-04-02T18:47:01.520Z,102262.28
2023-04-02T18:49:53.821Z,102271.88
2023-04-02T18:52:41.209Z,102280.09
2023-04-02T18:55:30.992Z,102288.34
2023-04-02T19:01:36.444Z,102302.19
2023-04-02T19:04:33.183Z,102310.13
2023-04-02T19:07:20.550Z,102315.81
2023-04-02T19:10:32.068Z,102316.06
2023-04-02T19:13:21.849Z,102326.31
2023-04-02T19:16:34.696Z,102328.88
2023-04-02T19:19:22.972Z,102337.63
2023-04-02T19:22:16.451Z,102331.06
2023-04-02T19:25:18.140Z,102337.19
2023-04-02T19:28:24.162Z,102342.63
2023-04-02T19:31:32.761Z,102340.03
2023-04-02T19:34:33.133Z,102345.69
2023-04-02T19:37:31.986Z,102339.09
2023-04-02T19:40:37.100Z,102348.66
2023-04-02T19:43:22.212Z,102356.28
2023-04-02T19:46:08.721Z,102356.28
2023-04-02T19:49:08.108Z,102352.31
2023-04-02T19:51:54.946Z,102364.50
2023-04-02T19:54:40.182Z,102370.88
2023-04-02T19:57:26.243Z,102369.44
2023-04-02T20:00:17.297Z,102371.19
2023-04-02T20:03:02.536Z,102377.00
2023-04-02T20:05:47.652Z,102381.16
2023-04-02T20:08:36.559Z,102379.88
2023-04-02T20:11:22.598Z,102384.75
2023-04-02T20:14:07.637Z,102386.78
2023-04-02T20:16:54.240Z,102382.34
2023-04-02T20:19:39.287Z,102386.00
2023-04-02T20:22:26.315Z,102391.28
2023-04-02T20:25:11.522Z,102399.75
2023-04-02T20:27:57.483Z,102399.25
2023-04-02T20:30:43.354Z,102404.78
2023-04-02T20:33:29.171Z,102409.97
2023-04-02T20:36:16.889Z,102406.34
2023-04-02T20:39:02.969Z,102417.88
2023-04-02T20:41:50.651Z,102417.63
2023-04-02T20:44:35.877Z,102420.63
2023-04-02T20:47:21.247Z,102424.19
2023-04-02T20:50:08.413Z,102431.28
2023-04-02T20:52:55.970Z,102430.38
2023-04-02T20:55:41.072Z,102431.50
2023-04-02T20:58:26.209Z,102439.41
2023-04-02T21:01:23.767Z,102439.22
2023-04-02T21:04:09.401Z,102444.47
2023-04-02T21:06:57.576Z,102455.31
2023-04-02T21:09:44.278Z,102453.44
2023-04-02T21:12:30.872Z,102461.97
2023-04-02T21:15:16.997Z,102458.66
2023-04-02T21:18:01.907Z,102461.84
2023-04-02T21:21:00.044Z,102470.41
2023-04-02T21:23:48.692Z,102472.25
2023-04-02T21:26:38.376Z,102477.78
2023-04-02T21:29:23.383Z,102486.16
2023-04-02T21:32:20.421Z,102482.69
2023-04-02T21:35:08.800Z,102482.09
2023-04-02T21:37:55.111Z,102482.22
2023-04-02T21:40:40.153Z,102486.75
2023-04-02T21:43:25.237Z,102487.59
2023-04-02T21:46:12.150Z,102490.75
2023-04-02T21:49:00.572Z,102490.19
2023-04-02T21:51:49.071Z,102497.88
2023-04-02T21:54:34.924Z,102488.94
2023-04-02T21:57:20.457Z,102498.91
2023-04-02T22:00:11.788Z,102499.56
2023-04-02T22:02:56.930Z,102492.47
2023-04-02T22:05:41.867Z,102500.31
2023-04-02T22:08:26.597Z,102501.88
2023-04-02T22:11:17.958Z,102500.38
2023-04-02T22:14:04.009Z,102504.09
2023-04-02T22:16:50.514Z,102505.81
2023-04-02T22:19:35.969Z,102515.44
2023-04-02T22:22:20.876Z,102513.41
2023-04-02T22:25:07.695Z,102522.59
2023-04-02T22:27:52.696Z,102522.81
2023-04-02T22:30:39.445Z,102515.31
2023-04-02T22:33:24.965Z,102526.75
2023-04-02T22:36:09.937Z,102524.31
2023-04-02T22:38:56.042Z,102526.09
2023-04-02T22:41:41.198Z,102527.13
2023-04-02T22:44:26.374Z,102534.94
2023-04-02T22:47:11.269Z,102532.94
2023-04-02T22:49:56.407Z,102533.72
2023-04-02T22:52:43.176Z,102537.88
2023-04-02T22:55:28.913Z,102537.47
2023-04-02T22:58:14.046Z,102537.19
2023-04-02T23:01:09.547Z,102537.91
2023-04-02T23:03:55.343Z,102544.09
2023-04-02T23:06:40.924Z,102548.28
2023-04-02T23:09:25.925Z,102556.09
2023-04-02T23:12:12.349Z,102547.00
2023-04-02T23:14:58.135Z,102550.47
2023-04-02T23:17:43.335Z,102559.97
2023-04-02T23:20:28.069Z,102561.97
2023-04-02T23:23:13.496Z,102553.50
2023-04-02T23:26:16.547Z,102546.13
2023-04-02T23:29:02.228Z,102549.13
2023-04-02T23:31:47.637Z,102549.53
2023-04-02T23:34:33.592Z,102545.31
2023-04-02T23:37:18.879Z,102548.19
2023-04-02T23:40:04.080Z,102551.16
2023-04-02T23:42:49.495Z,102555.09
2023-04-02T23:45:34.336Z,102544.97
2023-04-02T23:48:19.908Z,102555.06
2023-04-02T23:51:05.878Z,102547.53
2023-04-02T23:53:51.958Z,102553.00
2023-04-02T23:56:37.086Z,102557.69
2023-04-02T23:59:21.792Z,102562.44
